sensor_id;sensor_type;location;lat;lon;timestamp;P1;durP1;ratioP1;P2;durP2;ratioP2
26201;SDS011;13944;28.562;77.188;2023-04-25T00:01:36;58.47;;;30.20;;
26201;SDS011;13944;28.562;77.188;2023-04-25T00:04:03;63.88;;;31.35;;
26201;SDS011;13944;28.562;77.188;2023-04-25T00:06:34;58.28;;;30.10;;
26201;SDS011;13944;28.562;77.188;2023-04-25T00:09:05;55.03;;;29.23;;
26201;SDS011;13944;28.562;77.188;2023-04-25T00:11:36;56.90;;;29.52;;
26201;SDS011;13944;28.562;77.188;2023-04-25T00:14:03;58.13;;;29.45;;
26201;SDS011;13944;28.562;77.188;2023-04-25T00:16:29;57.05;;;28.20;;
26201;SDS011;13944;28.562;77.188;2023-04-25T00:18:59;54.55;;;27.90;;
26201;SDS011;13944;28.562;77.188;2023-04-25T00:21:26;59.53;;;28.98;;
26201;SDS011;13944;28.562;77.188;2023-04-25T00:23:53;83.90;;;30.67;;
26201;SDS011;13944;28.562;77.188;2023-04-25T00:26:20;111.07;;;33.05;;
26201;SDS011;13944;28.562;77.188;2023-04-25T00:28:47;157.95;;;38.70;;
26201;SDS011;13944;28.562;77.188;2023-04-25T00:31:13;126.40;;;33.55;;
26201;SDS011;13944;28.562;77.188;2023-04-25T00:33:40;82.18;;;31.67;;
26201;SDS011;13944;28.562;77.188;2023-04-25T00:36:07;105.57;;;32.55;;
26201;SDS011;13944;28.562;77.188;2023-04-25T00:38:33;254.43;;;43.45;;
26201;SDS011;13944;28.562;77.188;2023-04-25T00:41:01;162.32;;;36.55;;
26201;SDS011;13944;28.562;77.188;2023-04-25T00:43:27;111.25;;;32.33;;
26201;SDS011;13944;28.562;77.188;2023-04-25T00:45:54;79.82;;;30.77;;
26201;SDS011;13944;28.562;77.188;2023-04-25T00:48:22;66.85;;;29.33;;
26201;SDS011;13944;28.562;77.188;2023-04-25T00:50:53;121.97;;;35.40;;
26201;SDS011;13944;28.562;77.188;2023-04-25T00:53:20;69.85;;;30.20;;
26201;SDS011;13944;28.562;77.188;2023-04-25T00:55:47;54.08;;;29.15;;
26201;SDS011;13944;28.562;77.188;2023-04-25T00:58:16;63.28;;;30.73;;
26201;SDS011;13944;28.562;77.188;2023-04-25T01:00:44;63.00;;;30.85;;
26201;SDS011;13944;28.562;77.188;2023-04-25T01:03:12;71.55;;;31.33;;
26201;SDS011;13944;28.562;77.188;2023-04-25T01:05:40;66.03;;;30.77;;
26201;SDS011;13944;28.562;77.188;2023-04-25T01:08:06;68.55;;;29.63;;
26201;SDS011;13944;28.562;77.188;2023-04-25T01:10:33;70.00;;;29.55;;
26201;SDS011;13944;28.562;77.188;2023-04-25T01:12:59;66.78;;;28.38;;
26201;SDS011;13944;28.562;77.188;2023-04-25T01:15:26;56.40;;;28.35;;
26201;SDS011;13944;28.562;77.188;2023-04-25T01:17:52;75.75;;;32.70;;
26201;SDS011;13944;28.562;77.188;2023-04-25T01:20:20;66.25;;;33.28;;
26201;SDS011;13944;28.562;77.188;2023-04-25T01:22:48;63.47;;;31.52;;
26201;SDS011;13944;28.562;77.188;2023-04-25T01:25:15;61.13;;;30.70;;
26201;SDS011;13944;28.562;77.188;2023-04-25T01:27:42;60.53;;;30.30;;
26201;SDS011;13944;28.562;77.188;2023-04-25T01:30:08;68.75;;;30.48;;
26201;SDS011;13944;28.562;77.188;2023-04-25T01:32:35;59.03;;;30.63;;
26201;SDS011;13944;28.562;77.188;2023-04-25T01:35:05;58.95;;;30.08;;
26201;SDS011;13944;28.562;77.188;2023-04-25T01:37:39;62.95;;;31.55;;
26201;SDS011;13944;28.562;77.188;2023-04-25T01:40:06;63.08;;;30.77;;
26201;SDS011;13944;28.562;77.188;2023-04-25T01:42:34;66.15;;;29.92;;
26201;SDS011;13944;28.562;77.188;2023-04-25T01:45:01;65.68;;;30.70;;
26201;SDS011;13944;28.562;77.188;2023-04-25T01:47:27;71.43;;;31.48;;
26201;SDS011;13944;28.562;77.188;2023-04-25T01:49:54;65.68;;;31.40;;
26201;SDS011;13944;28.562;77.188;2023-04-25T01:52:21;62.60;;;30.70;;
26201;SDS011;13944;28.562;77.188;2023-04-25T01:54:47;58.05;;;29.70;;
26201;SDS011;13944;28.562;77.188;2023-04-25T01:57:15;62.83;;;28.95;;
26201;SDS011;13944;28.562;77.188;2023-04-25T01:59:41;73.32;;;31.83;;
26201;SDS011;13944;28.562;77.188;2023-04-25T02:02:08;73.40;;;31.60;;
26201;SDS011;13944;28.562;77.188;2023-04-25T02:04:35;105.85;;;32.85;;
26201;SDS011;13944;28.562;77.188;2023-04-25T02:07:01;55.08;;;29.33;;
26201;SDS011;13944;28.562;77.188;2023-04-25T02:09:28;75.70;;;30.75;;
26201;SDS011;13944;28.562;77.188;2023-04-25T02:11:54;70.55;;;29.45;;
26201;SDS011;13944;28.562;77.188;2023-04-25T02:14:21;80.15;;;31.05;;
26201;SDS011;13944;28.562;77.188;2023-04-25T02:16:47;68.13;;;30.17;;
26201;SDS011;13944;28.562;77.188;2023-04-25T02:19:14;74.45;;;30.42;;
26201;SDS011;13944;28.562;77.188;2023-04-25T02:21:40;78.38;;;30.58;;
26201;SDS011;13944;28.562;77.188;2023-04-25T02:24:07;65.82;;;29.52;;
26201;SDS011;13944;28.562;77.188;2023-04-25T02:26:34;69.60;;;30.40;;
26201;SDS011;13944;28.562;77.188;2023-04-25T02:29:00;65.43;;;28.40;;
26201;SDS011;13944;28.562;77.188;2023-04-25T02:31:27;55.40;;;27.17;;
26201;SDS011;13944;28.562;77.188;2023-04-25T02:33:53;54.20;;;24.67;;
26201;SDS011;13944;28.562;77.188;2023-04-25T02:36:20;58.15;;;27.77;;
26201;SDS011;13944;28.562;77.188;2023-04-25T02:38:46;48.33;;;25.80;;
26201;SDS011;13944;28.562;77.188;2023-04-25T02:41:13;47.53;;;25.60;;
26201;SDS011;13944;28.562;77.188;2023-04-25T02:43:39;63.47;;;25.95;;
26201;SDS011;13944;28.562;77.188;2023-04-25T02:46:07;50.17;;;25.38;;
26201;SDS011;13944;28.562;77.188;2023-04-25T02:48:34;49.00;;;24.08;;
26201;SDS011;13944;28.562;77.188;2023-04-25T02:51:00;53.15;;;26.90;;
26201;SDS011;13944;28.562;77.188;2023-04-25T02:53:27;52.53;;;27.45;;
26201;SDS011;13944;28.562;77.188;2023-04-25T02:55:53;51.00;;;24.55;;
26201;SDS011;13944;28.562;77.188;2023-04-25T02:58:23;55.80;;;25.73;;
26201;SDS011;13944;28.562;77.188;2023-04-25T03:00:50;57.17;;;28.10;;
26201;SDS011;13944;28.562;77.188;2023-04-25T03:03:16;61.80;;;28.45;;
26201;SDS011;13944;28.562;77.188;2023-04-25T03:05:43;50.28;;;25.10;;
26201;SDS011;13944;28.562;77.188;2023-04-25T03:08:11;50.97;;;25.63;;
26201;SDS011;13944;28.562;77.188;2023-04-25T03:10:38;56.70;;;27.55;;
26201;SDS011;13944;28.562;77.188;2023-04-25T03:13:05;53.53;;;26.05;;
26201;SDS011;13944;28.562;77.188;2023-04-25T03:15:32;51.92;;;26.13;;
26201;SDS011;13944;28.562;77.188;2023-04-25T03:17:58;46.03;;;23.60;;
26201;SDS011;13944;28.562;77.188;2023-04-25T03:20:25;39.60;;;22.83;;
26201;SDS011;13944;28.562;77.188;2023-04-25T03:22:52;40.72;;;20.45;;
26201;SDS011;13944;28.562;77.188;2023-04-25T03:25:18;38.65;;;21.17;;
26201;SDS011;13944;28.562;77.188;2023-04-25T03:27:45;40.08;;;19.77;;
26201;SDS011;13944;28.562;77.188;2023-04-25T03:30:12;42.65;;;21.10;;
26201;SDS011;13944;28.562;77.188;2023-04-25T03:32:38;49.63;;;23.10;;
26201;SDS011;13944;28.562;77.188;2023-04-25T03:35:05;40.22;;;19.77;;
26201;SDS011;13944;28.562;77.188;2023-04-25T03:37:32;39.78;;;20.55;;
26201;SDS011;13944;28.562;77.188;2023-04-25T03:39:58;46.10;;;21.77;;
26201;SDS011;13944;28.562;77.188;2023-04-25T03:42:25;43.65;;;20.20;;
26201;SDS011;13944;28.562;77.188;2023-04-25T03:44:51;43.37;;;24.70;;
26201;SDS011;13944;28.562;77.188;2023-04-25T03:47:18;43.80;;;25.23;;
26201;SDS011;13944;28.562;77.188;2023-04-25T03:49:44;53.45;;;30.15;;
26201;SDS011;13944;28.562;77.188;2023-04-25T03:52:11;57.22;;;28.35;;
26201;SDS011;13944;28.562;77.188;2023-04-25T03:54:37;52.42;;;29.23;;
26201;SDS011;13944;28.562;77.188;2023-04-25T03:57:04;47.22;;;29.80;;
26201;SDS011;13944;28.562;77.188;2023-04-25T03:59:30;58.78;;;32.40;;
26201;SDS011;13944;28.562;77.188;2023-04-25T04:01:57;44.80;;;25.92;;
26201;SDS011;13944;28.562;77.188;2023-04-25T04:04:23;56.15;;;28.40;;
26201;SDS011;13944;28.562;77.188;2023-04-25T04:06:50;46.50;;;26.63;;
26201;SDS011;13944;28.562;77.188;2023-04-25T04:09:17;49.05;;;26.02;;
26201;SDS011;13944;28.562;77.188;2023-04-25T04:11:47;47.08;;;25.98;;
26201;SDS011;13944;28.562;77.188;2023-04-25T04:14:13;47.75;;;27.00;;
26201;SDS011;13944;28.562;77.188;2023-04-25T04:16:40;52.90;;;28.38;;
26201;SDS011;13944;28.562;77.188;2023-04-25T04:19:06;42.92;;;25.67;;
26201;SDS011;13944;28.562;77.188;2023-04-25T04:21:33;44.75;;;24.02;;
26201;SDS011;13944;28.562;77.188;2023-04-25T04:23:59;46.40;;;24.70;;
26201;SDS011;13944;28.562;77.188;2023-04-25T04:26:26;47.95;;;25.38;;
26201;SDS011;13944;28.562;77.188;2023-04-25T04:28:53;51.70;;;23.42;;
26201;SDS011;13944;28.562;77.188;2023-04-25T04:31:20;39.78;;;21.90;;
26201;SDS011;13944;28.562;77.188;2023-04-25T04:33:47;41.58;;;22.70;;
26201;SDS011;13944;28.562;77.188;2023-04-25T04:36:14;50.03;;;22.05;;
26201;SDS011;13944;28.562;77.188;2023-04-25T04:38:41;47.15;;;24.65;;
26201;SDS011;13944;28.562;77.188;2023-04-25T04:41:07;41.22;;;21.90;;
26201;SDS011;13944;28.562;77.188;2023-04-25T04:43:34;52.45;;;24.17;;
26201;SDS011;13944;28.562;77.188;2023-04-25T04:46:01;48.03;;;23.65;;
26201;SDS011;13944;28.562;77.188;2023-04-25T04:48:29;43.75;;;27.15;;
26201;SDS011;13944;28.562;77.188;2023-04-25T04:50:57;48.20;;;27.00;;
26201;SDS011;13944;28.562;77.188;2023-04-25T04:53:24;46.60;;;23.65;;
26201;SDS011;13944;28.562;77.188;2023-04-25T04:55:51;36.83;;;20.33;;
26201;SDS011;13944;28.562;77.188;2023-04-25T04:58:17;41.28;;;22.33;;
26201;SDS011;13944;28.562;77.188;2023-04-25T05:00:44;40.55;;;22.67;;
26201;SDS011;13944;28.562;77.188;2023-04-25T05:03:11;39.90;;;22.98;;
26201;SDS011;13944;28.562;77.188;2023-04-25T05:05:38;39.00;;;23.40;;
26201;SDS011;13944;28.562;77.188;2023-04-25T05:08:07;37.72;;;21.48;;
26201;SDS011;13944;28.562;77.188;2023-04-25T05:10:34;40.30;;;21.98;;
26201;SDS011;13944;28.562;77.188;2023-04-25T05:13:00;42.47;;;24.75;;
26201;SDS011;13944;28.562;77.188;2023-04-25T05:15:27;35.47;;;21.45;;
26201;SDS011;13944;28.562;77.188;2023-04-25T05:17:54;45.08;;;22.15;;
26201;SDS011;13944;28.562;77.188;2023-04-25T05:20:21;39.72;;;21.50;;
26201;SDS011;13944;28.562;77.188;2023-04-25T05:22:47;43.40;;;22.85;;
26201;SDS011;13944;28.562;77.188;2023-04-25T05:25:14;37.78;;;22.52;;
26201;SDS011;13944;28.562;77.188;2023-04-25T05:27:41;36.20;;;20.75;;
26201;SDS011;13944;28.562;77.188;2023-04-25T05:30:07;35.15;;;19.92;;
26201;SDS011;13944;28.562;77.188;2023-04-25T05:32:34;36.72;;;21.27;;
26201;SDS011;13944;28.562;77.188;2023-04-25T05:35:01;39.75;;;21.67;;
26201;SDS011;13944;28.562;77.188;2023-04-25T05:37:28;35.20;;;20.77;;
26201;SDS011;13944;28.562;77.188;2023-04-25T05:39:56;34.65;;;19.80;;
26201;SDS011;13944;28.562;77.188;2023-04-25T05:42:22;39.20;;;22.42;;
26201;SDS011;13944;28.562;77.188;2023-04-25T05:44:49;36.92;;;20.25;;
26201;SDS011;13944;28.562;77.188;2023-04-25T05:47:15;38.35;;;21.60;;
26201;SDS011;13944;28.562;77.188;2023-04-25T05:49:42;41.53;;;21.40;;
26201;SDS011;13944;28.562;77.188;2023-04-25T05:52:09;35.28;;;20.85;;
26201;SDS011;13944;28.562;77.188;2023-04-25T05:54:35;32.75;;;18.85;;
26201;SDS011;13944;28.562;77.188;2023-04-25T05:57:02;58.47;;;39.90;;
26201;SDS011;13944;28.562;77.188;2023-04-25T05:59:28;80.85;;;72.13;;
26201;SDS011;13944;28.562;77.188;2023-04-25T06:01:55;50.70;;;42.50;;
26201;SDS011;13944;28.562;77.188;2023-04-25T06:04:21;44.83;;;30.08;;
26201;SDS011;13944;28.562;77.188;2023-04-25T06:06:48;43.10;;;26.67;;
26201;SDS011;13944;28.562;77.188;2023-04-25T06:09:14;32.97;;;22.45;;
26201;SDS011;13944;28.562;77.188;2023-04-25T06:11:41;37.40;;;22.08;;
26201;SDS011;13944;28.562;77.188;2023-04-25T06:14:07;47.33;;;24.48;;
26201;SDS011;13944;28.562;77.188;2023-04-25T06:16:34;40.35;;;21.65;;
26201;SDS011;13944;28.562;77.188;2023-04-25T06:19:01;42.83;;;22.67;;
26201;SDS011;13944;28.562;77.188;2023-04-25T06:21:27;37.45;;;21.80;;
26201;SDS011;13944;28.562;77.188;2023-04-25T06:23:54;40.55;;;23.25;;
26201;SDS011;13944;28.562;77.188;2023-04-25T06:26:20;36.90;;;21.98;;
26201;SDS011;13944;28.562;77.188;2023-04-25T06:28:47;33.78;;;21.45;;
26201;SDS011;13944;28.562;77.188;2023-04-25T06:31:13;36.75;;;21.80;;
26201;SDS011;13944;28.562;77.188;2023-04-25T06:33:40;36.58;;;21.00;;
26201;SDS011;13944;28.562;77.188;2023-04-25T06:36:07;39.45;;;22.70;;
26201;SDS011;13944;28.562;77.188;2023-04-25T06:38:33;55.90;;;23.13;;
26201;SDS011;13944;28.562;77.188;2023-04-25T06:41:00;64.20;;;22.55;;
26201;SDS011;13944;28.562;77.188;2023-04-25T06:43:27;72.32;;;23.33;;
26201;SDS011;13944;28.562;77.188;2023-04-25T06:45:58;62.35;;;21.88;;
26201;SDS011;13944;28.562;77.188;2023-04-25T06:48:31;45.67;;;21.58;;
26201;SDS011;13944;28.562;77.188;2023-04-25T06:50:57;40.53;;;21.70;;
26201;SDS011;13944;28.562;77.188;2023-04-25T06:53:24;38.97;;;22.30;;
26201;SDS011;13944;28.562;77.188;2023-04-25T06:55:50;36.28;;;20.55;;
26201;SDS011;13944;28.562;77.188;2023-04-25T06:58:17;33.67;;;20.38;;
26201;SDS011;13944;28.562;77.188;2023-04-25T07:00:44;33.42;;;19.67;;
26201;SDS011;13944;28.562;77.188;2023-04-25T07:03:10;34.55;;;19.50;;
26201;SDS011;13944;28.562;77.188;2023-04-25T07:05:37;34.85;;;19.52;;
26201;SDS011;13944;28.562;77.188;2023-04-25T07:08:03;33.17;;;18.55;;
26201;SDS011;13944;28.562;77.188;2023-04-25T07:10:30;38.03;;;20.30;;
26201;SDS011;13944;28.562;77.188;2023-04-25T07:12:56;31.38;;;19.48;;
26201;SDS011;13944;28.562;77.188;2023-04-25T07:15:23;40.17;;;21.80;;
26201;SDS011;13944;28.562;77.188;2023-04-25T07:17:50;32.30;;;18.80;;
26201;SDS011;13944;28.562;77.188;2023-04-25T07:20:17;33.25;;;19.23;;
26201;SDS011;13944;28.562;77.188;2023-04-25T07:22:43;33.45;;;17.40;;
26201;SDS011;13944;28.562;77.188;2023-04-25T07:25:10;34.20;;;17.20;;
26201;SDS011;13944;28.562;77.188;2023-04-25T07:27:36;36.20;;;17.98;;
26201;SDS011;13944;28.562;77.188;2023-04-25T07:30:04;31.60;;;18.27;;
26201;SDS011;13944;28.562;77.188;2023-04-25T07:32:31;27.80;;;17.15;;
26201;SDS011;13944;28.562;77.188;2023-04-25T07:34:58;31.73;;;17.05;;
26201;SDS011;13944;28.562;77.188;2023-04-25T07:37:24;24.10;;;17.13;;
26201;SDS011;13944;28.562;77.188;2023-04-25T07:39:51;31.58;;;17.02;;
26201;SDS011;13944;28.562;77.188;2023-04-25T07:42:18;30.17;;;16.02;;
26201;SDS011;13944;28.562;77.188;2023-04-25T07:44:44;33.72;;;18.20;;
26201;SDS011;13944;28.562;77.188;2023-04-25T07:47:11;31.20;;;17.60;;
26201;SDS011;13944;28.562;77.188;2023-04-25T07:49:38;35.70;;;19.10;;
26201;SDS011;13944;28.562;77.188;2023-04-25T07:52:05;33.55;;;18.40;;
26201;SDS011;13944;28.562;77.188;2023-04-25T07:54:32;33.45;;;17.25;;
26201;SDS011;13944;28.562;77.188;2023-04-25T07:56:58;30.23;;;16.70;;
26201;SDS011;13944;28.562;77.188;2023-04-25T07:59:25;30.60;;;17.15;;
26201;SDS011;13944;28.562;77.188;2023-04-25T08:01:51;29.25;;;16.52;;
26201;SDS011;13944;28.562;77.188;2023-04-25T08:04:18;32.22;;;17.52;;
26201;SDS011;13944;28.562;77.188;2023-04-25T08:06:44;30.60;;;17.63;;
26201;SDS011;13944;28.562;77.188;2023-04-25T08:09:11;28.98;;;18.25;;
26201;SDS011;13944;28.562;77.188;2023-04-25T08:11:38;34.97;;;19.77;;
26201;SDS011;13944;28.562;77.188;2023-04-25T08:14:05;33.92;;;17.75;;
26201;SDS011;13944;28.562;77.188;2023-04-25T08:16:31;25.02;;;16.60;;
26201;SDS011;13944;28.562;77.188;2023-04-25T08:18:59;29.02;;;18.05;;
26201;SDS011;13944;28.562;77.188;2023-04-25T08:21:26;31.92;;;19.25;;
26201;SDS011;13944;28.562;77.188;2023-04-25T08:23:52;29.00;;;19.67;;
26201;SDS011;13944;28.562;77.188;2023-04-25T08:26:19;30.85;;;19.38;;
26201;SDS011;13944;28.562;77.188;2023-04-25T08:28:46;37.22;;;21.40;;
26201;SDS011;13944;28.562;77.188;2023-04-25T08:31:12;31.35;;;20.27;;
26201;SDS011;13944;28.562;77.188;2023-04-25T08:33:39;31.25;;;20.02;;
26201;SDS011;13944;28.562;77.188;2023-04-25T08:36:06;35.72;;;19.70;;
26201;SDS011;13944;28.562;77.188;2023-04-25T08:38:33;33.83;;;18.67;;
26201;SDS011;13944;28.562;77.188;2023-04-25T08:40:59;28.45;;;18.58;;
26201;SDS011;13944;28.562;77.188;2023-04-25T08:43:26;29.42;;;19.00;;
26201;SDS011;13944;28.562;77.188;2023-04-25T08:45:58;31.05;;;19.95;;
26201;SDS011;13944;28.562;77.188;2023-04-25T08:48:28;32.13;;;20.60;;
26201;SDS011;13944;28.562;77.188;2023-04-25T08:50:55;30.73;;;19.88;;
26201;SDS011;13944;28.562;77.188;2023-04-25T08:53:27;30.40;;;18.95;;
26201;SDS011;13944;28.562;77.188;2023-04-25T08:55:54;35.80;;;19.60;;
26201;SDS011;13944;28.562;77.188;2023-04-25T08:58:21;32.05;;;17.50;;
26201;SDS011;13944;28.562;77.188;2023-04-25T09:00:48;26.70;;;18.25;;
26201;SDS011;13944;28.562;77.188;2023-04-25T09:03:16;30.80;;;18.30;;
26201;SDS011;13944;28.562;77.188;2023-04-25T09:05:43;32.08;;;17.38;;
26201;SDS011;13944;28.562;77.188;2023-04-25T09:08:09;30.80;;;18.40;;
26201;SDS011;13944;28.562;77.188;2023-04-25T09:10:36;30.08;;;18.55;;
26201;SDS011;13944;28.562;77.188;2023-04-25T09:13:04;29.88;;;17.98;;
26201;SDS011;13944;28.562;77.188;2023-04-25T09:15:31;34.67;;;18.27;;
26201;SDS011;13944;28.562;77.188;2023-04-25T09:18:01;31.83;;;18.30;;
26201;SDS011;13944;28.562;77.188;2023-04-25T09:20:27;33.22;;;18.67;;
26201;SDS011;13944;28.562;77.188;2023-04-25T09:23:01;33.33;;;20.50;;
26201;SDS011;13944;28.562;77.188;2023-04-25T09:25:28;34.60;;;20.15;;
26201;SDS011;13944;28.562;77.188;2023-04-25T09:28:03;34.65;;;20.70;;
26201;SDS011;13944;28.562;77.188;2023-04-25T09:30:31;30.50;;;20.48;;
26201;SDS011;13944;28.562;77.188;2023-04-25T09:33:03;28.77;;;19.58;;
26201;SDS011;13944;28.562;77.188;2023-04-25T09:35:34;35.30;;;20.63;;
26201;SDS011;13944;28.562;77.188;2023-04-25T09:38:01;37.70;;;20.45;;
26201;SDS011;13944;28.562;77.188;2023-04-25T09:40:28;33.75;;;21.15;;
26201;SDS011;13944;28.562;77.188;2023-04-25T09:42:56;41.20;;;20.40;;
26201;SDS011;13944;28.562;77.188;2023-04-25T09:45:24;35.05;;;19.40;;
26201;SDS011;13944;28.562;77.188;2023-04-25T09:47:52;33.55;;;19.17;;
26201;SDS011;13944;28.562;77.188;2023-04-25T09:50:23;34.65;;;19.10;;
26201;SDS011;13944;28.562;77.188;2023-04-25T09:53:11;30.02;;;19.35;;
26201;SDS011;13944;28.562;77.188;2023-04-25T09:55:36;33.38;;;19.45;;
26201;SDS011;13944;28.562;77.188;2023-04-25T09:58:04;38.17;;;19.73;;
26201;SDS011;13944;28.562;77.188;2023-04-25T10:00:34;40.30;;;21.20;;
26201;SDS011;13944;28.562;77.188;2023-04-25T10:03:01;31.20;;;18.98;;
26201;SDS011;13944;28.562;77.188;2023-04-25T10:05:32;32.95;;;18.70;;
26201;SDS011;13944;28.562;77.188;2023-04-25T10:08:00;32.58;;;17.77;;
26201;SDS011;13944;28.562;77.188;2023-04-25T10:10:29;32.08;;;18.90;;
26201;SDS011;13944;28.562;77.188;2023-04-25T10:13:02;32.10;;;19.45;;
26201;SDS011;13944;28.562;77.188;2023-04-25T10:15:28;32.22;;;18.55;;
26201;SDS011;13944;28.562;77.188;2023-04-25T10:17:56;32.65;;;17.38;;
26201;SDS011;13944;28.562;77.188;2023-04-25T10:20:22;27.08;;;18.15;;
26201;SDS011;13944;28.562;77.188;2023-04-25T10:22:49;29.05;;;16.55;;
26201;SDS011;13944;28.562;77.188;2023-04-25T10:25:19;34.05;;;19.90;;
26201;SDS011;13944;28.562;77.188;2023-04-25T10:27:45;30.75;;;20.95;;
26201;SDS011;13944;28.562;77.188;2023-04-25T10:30:15;33.75;;;19.80;;
26201;SDS011;13944;28.562;77.188;2023-04-25T10:32:42;31.42;;;18.92;;
26201;SDS011;13944;28.562;77.188;2023-04-25T10:35:25;35.47;;;21.98;;
26201;SDS011;13944;28.562;77.188;2023-04-25T10:40:34;35.60;;;18.70;;
26201;SDS011;13944;28.562;77.188;2023-04-25T10:43:49;27.25;;;18.52;;
26201;SDS011;13944;28.562;77.188;2023-04-25T10:45:53;28.42;;;17.90;;
26201;SDS011;13944;28.562;77.188;2023-04-25T10:48:30;31.02;;;18.75;;
26201;SDS011;13944;28.562;77.188;2023-04-25T10:53:38;40.22;;;18.85;;
26201;SDS011;13944;28.562;77.188;2023-04-25T10:56:18;34.83;;;19.55;;
26201;SDS011;13944;28.562;77.188;2023-04-25T10:58:46;31.90;;;17.35;;
26201;SDS011;13944;28.562;77.188;2023-04-25T11:01:14;34.30;;;17.77;;
26201;SDS011;13944;28.562;77.188;2023-04-25T11:03:41;31.10;;;17.90;;
26201;SDS011;13944;28.562;77.188;2023-04-25T11:06:18;33.40;;;17.73;;
26201;SDS011;13944;28.562;77.188;2023-04-25T11:08:50;32.00;;;18.73;;
26201;SDS011;13944;28.562;77.188;2023-04-25T11:11:17;36.70;;;18.83;;
26201;SDS011;13944;28.562;77.188;2023-04-25T11:13:48;30.13;;;17.88;;
26201;SDS011;13944;28.562;77.188;2023-04-25T11:16:15;31.58;;;17.90;;
26201;SDS011;13944;28.562;77.188;2023-04-25T11:18:42;35.85;;;16.55;;
26201;SDS011;13944;28.562;77.188;2023-04-25T11:21:09;30.13;;;16.83;;
26201;SDS011;13944;28.562;77.188;2023-04-25T11:23:36;29.38;;;14.32;;
26201;SDS011;13944;28.562;77.188;2023-04-25T11:26:03;25.77;;;15.35;;
26201;SDS011;13944;28.562;77.188;2023-04-25T11:28:29;35.80;;;17.40;;
26201;SDS011;13944;28.562;77.188;2023-04-25T11:30:56;32.35;;;16.65;;
26201;SDS011;13944;28.562;77.188;2023-04-25T11:33:23;33.92;;;18.33;;
26201;SDS011;13944;28.562;77.188;2023-04-25T11:35:52;33.83;;;19.85;;
26201;SDS011;13944;28.562;77.188;2023-04-25T11:38:19;36.30;;;20.38;;
26201;SDS011;13944;28.562;77.188;2023-04-25T11:40:49;34.95;;;19.27;;
26201;SDS011;13944;28.562;77.188;2023-04-25T11:43:16;24.52;;;16.67;;
26201;SDS011;13944;28.562;77.188;2023-04-25T11:45:46;30.02;;;18.08;;
26201;SDS011;13944;28.562;77.188;2023-04-25T11:48:13;32.17;;;17.88;;
26201;SDS011;13944;28.562;77.188;2023-04-25T11:50:39;30.98;;;16.92;;
26201;SDS011;13944;28.562;77.188;2023-04-25T11:53:06;29.38;;;15.90;;
26201;SDS011;13944;28.562;77.188;2023-04-25T11:55:33;30.35;;;16.13;;
26201;SDS011;13944;28.562;77.188;2023-04-25T11:58:01;35.97;;;16.90;;
26201;SDS011;13944;28.562;77.188;2023-04-25T12:00:28;29.15;;;15.80;;
26201;SDS011;13944;28.562;77.188;2023-04-25T12:02:55;36.65;;;16.50;;
26201;SDS011;13944;28.562;77.188;2023-04-25T12:05:29;33.53;;;16.57;;
26201;SDS011;13944;28.562;77.188;2023-04-25T12:07:55;30.17;;;16.00;;
26201;SDS011;13944;28.562;77.188;2023-04-25T12:10:23;26.08;;;15.25;;
26201;SDS011;13944;28.562;77.188;2023-04-25T12:12:51;26.40;;;15.00;;
26201;SDS011;13944;28.562;77.188;2023-04-25T12:15:18;31.65;;;16.15;;
26201;SDS011;13944;28.562;77.188;2023-04-25T12:17:45;35.65;;;15.52;;
26201;SDS011;13944;28.562;77.188;2023-04-25T12:20:13;28.48;;;14.73;;
26201;SDS011;13944;28.562;77.188;2023-04-25T12:22:47;33.80;;;15.57;;
26201;SDS011;13944;28.562;77.188;2023-04-25T12:25:33;28.73;;;14.20;;
26201;SDS011;13944;28.562;77.188;2023-04-25T12:33:19;37.05;;;15.25;;
26201;SDS011;13944;28.562;77.188;2023-04-25T12:35:45;36.60;;;15.88;;
26201;SDS011;13944;28.562;77.188;2023-04-25T12:38:19;35.72;;;17.63;;
26201;SDS011;13944;28.562;77.188;2023-04-25T12:40:46;43.05;;;19.05;;
26201;SDS011;13944;28.562;77.188;2023-04-25T12:43:12;34.38;;;18.17;;
26201;SDS011;13944;28.562;77.188;2023-04-25T12:45:39;34.53;;;18.80;;
26201;SDS011;13944;28.562;77.188;2023-04-25T12:48:06;39.90;;;19.23;;
26201;SDS011;13944;28.562;77.188;2023-04-25T12:50:32;38.42;;;18.48;;
26201;SDS011;13944;28.562;77.188;2023-04-25T12:52:59;44.75;;;18.98;;
26201;SDS011;13944;28.562;77.188;2023-04-25T12:55:25;40.03;;;19.40;;
26201;SDS011;13944;28.562;77.188;2023-04-25T12:57:52;39.45;;;19.23;;
26201;SDS011;13944;28.562;77.188;2023-04-25T13:00:18;48.97;;;21.15;;
26201;SDS011;13944;28.562;77.188;2023-04-25T13:02:45;49.33;;;21.15;;
26201;SDS011;13944;28.562;77.188;2023-04-25T13:05:14;53.47;;;21.00;;
26201;SDS011;13944;28.562;77.188;2023-04-25T13:07:41;57.97;;;20.77;;
26201;SDS011;13944;28.562;77.188;2023-04-25T13:10:08;60.72;;;21.50;;
26201;SDS011;13944;28.562;77.188;2023-04-25T13:12:34;62.20;;;21.52;;
26201;SDS011;13944;28.562;77.188;2023-04-25T13:15:01;49.40;;;21.00;;
26201;SDS011;13944;28.562;77.188;2023-04-25T13:17:27;59.83;;;21.92;;
26201;SDS011;13944;28.562;77.188;2023-04-25T13:19:54;49.75;;;21.98;;
26201;SDS011;13944;28.562;77.188;2023-04-25T13:22:20;41.22;;;21.13;;
26201;SDS011;13944;28.562;77.188;2023-04-25T13:24:47;45.33;;;20.80;;
26201;SDS011;13944;28.562;77.188;2023-04-25T13:27:13;44.92;;;20.60;;
26201;SDS011;13944;28.562;77.188;2023-04-25T13:29:40;51.20;;;20.90;;
26201;SDS011;13944;28.562;77.188;2023-04-25T13:32:07;52.88;;;21.40;;
26201;SDS011;13944;28.562;77.188;2023-04-25T13:34:33;55.03;;;23.88;;
26201;SDS011;13944;28.562;77.188;2023-04-25T13:37:00;56.58;;;24.00;;
26201;SDS011;13944;28.562;77.188;2023-04-25T13:39:26;69.72;;;25.65;;
26201;SDS011;13944;28.562;77.188;2023-04-25T13:41:53;56.00;;;24.25;;
26201;SDS011;13944;28.562;77.188;2023-04-25T13:44:19;58.40;;;25.17;;
26201;SDS011;13944;28.562;77.188;2023-04-25T13:46:46;63.40;;;25.58;;
26201;SDS011;13944;28.562;77.188;2023-04-25T13:49:12;60.65;;;26.23;;
26201;SDS011;13944;28.562;77.188;2023-04-25T13:51:39;69.72;;;27.02;;
26201;SDS011;13944;28.562;77.188;2023-04-25T13:54:07;70.20;;;27.92;;
26201;SDS011;13944;28.562;77.188;2023-04-25T13:56:34;68.45;;;27.13;;
26201;SDS011;13944;28.562;77.188;2023-04-25T13:59:00;79.10;;;29.83;;
26201;SDS011;13944;28.562;77.188;2023-04-25T14:01:27;74.63;;;29.20;;
26201;SDS011;13944;28.562;77.188;2023-04-25T14:03:55;81.55;;;28.70;;
26201;SDS011;13944;28.562;77.188;2023-04-25T14:06:22;69.90;;;28.25;;
26201;SDS011;13944;28.562;77.188;2023-04-25T14:08:49;63.70;;;27.95;;
26201;SDS011;13944;28.562;77.188;2023-04-25T14:11:16;76.20;;;30.00;;
26201;SDS011;13944;28.562;77.188;2023-04-25T14:13:44;68.88;;;28.00;;
26201;SDS011;13944;28.562;77.188;2023-04-25T14:16:10;72.85;;;29.08;;
26201;SDS011;13944;28.562;77.188;2023-04-25T14:18:36;68.32;;;28.25;;
26201;SDS011;13944;28.562;77.188;2023-04-25T14:21:03;67.68;;;27.83;;